Time;durP1;ratioP1;P1;durP2;ratioP2;P2;SDS_P1;SDS_P2;PMS_P1;PMS_P2;Temp;Humidity;BMP_temperature;BMP_pressure;BME280_temperature;BME280_humidity;BME280_pressure;Samples;Min_cycle;Max_cycle;Signal;HPM_P1;HPM_P2
2021/12/07 00:00:23;;;;;;;7.90;3.60;;;;;;;15.56;52.30;100357.56;5081323;28;20129;-61
2021/12/07 00:02:49;;;;;;;10.20;3.70;;;;;;;15.51;52.46;100363.91;5081585;28;20149;-61
2021/12/07 00:05:15;;;;;;;7.95;3.33;;;;;;;15.51;52.39;100363.91;5082631;28;20114;-60
2021/12/07 00:07:43;;;;;;;7.82;3.55;;;;;;;15.49;52.49;100366.59;5080866;28;20040;-61
2021/12/07 00:10:09;;;;;;;8.10;3.40;;;;;;;15.51;52.14;100375.22;5082187;28;20469;-61
2021/12/07 00:12:38;;;;;;;7.53;3.42;;;;;;;15.47;52.08;100375.44;5083644;28;20461;-61
2021/12/07 00:15:06;;;;;;;7.78;3.50;;;;;;;15.44;52.02;100368.56;5080984;28;20024;-61
2021/12/07 00:17:33;;;;;;;7.05;3.33;;;;;;;15.45;51.88;100375.47;5081027;28;20474;-61
2021/12/07 00:19:59;;;;;;;6.97;3.45;;;;;;;15.47;52.15;100383.28;5081210;28;20397;-61
2021/12/07 00:22:25;;;;;;;8.02;3.60;;;;;;;15.45;51.86;100378.09;5083048;28;20070;-60
2021/12/07 00:24:51;;;;;;;8.07;3.50;;;;;;;15.44;51.97;100392.09;5081917;28;20129;-61
2021/12/07 00:27:17;;;;;;;8.13;3.83;;;;;;;15.42;52.10;100386.09;5083452;28;20086;-61
2021/12/07 00:29:42;;;;;;;7.95;3.60;;;;;;;15.42;51.65;100389.53;5081463;28;20128;-61
2021/12/07 00:32:46;;;;;;;6.27;3.40;;;;;;;15.41;51.79;100398.31;5081810;28;20031;-60
2021/12/07 00:37:35;;;;;;;7.32;3.60;;;;;;;15.42;51.95;100393.94;5082163;28;20397;-61
2021/12/07 00:40:04;;;;;;;7.93;3.80;;;;;;;15.34;51.75;100401.25;5081480;28;20028;-61
2021/12/07 00:42:30;;;;;;;6.68;3.60;;;;;;;15.38;51.54;100410.66;5081661;28;20052;-62
2021/12/07 00:44:55;;;;;;;7.40;3.70;;;;;;;15.32;51.79;100401.31;5082763;28;20060;-62
2021/12/07 00:47:21;;;;;;;7.87;3.60;;;;;;;15.33;51.55;100407.38;5081253;28;20055;-61
2021/12/07 00:49:46;;;;;;;7.07;3.50;;;;;;;15.33;51.26;100418.69;5082095;28;20031;-61
2021/12/07 00:52:12;;;;;;;6.37;3.60;;;;;;;15.29;51.13;100415.38;5081590;28;20403;-61
2021/12/07 00:54:37;;;;;;;7.90;3.70;;;;;;;15.28;51.15;100413.66;5081735;28;20102;-61
2021/12/07 00:57:03;;;;;;;6.73;3.10;;;;;;;15.32;51.45;100423.97;5081640;28;20036;-61
2021/12/07 00:59:30;;;;;;;7.05;3.65;;;;;;;15.26;50.88;100428.56;5081612;28;20024;-60
2021/12/07 01:01:56;;;;;;;;;;;;;;;15.38;51.75;100434.19;5082736;28;20020;-61
2021/12/07 01:04:23;;;;;;;;;;;;;;;15.39;51.85;100438.50;5081583;28;19916;-61
2021/12/07 01:07:02;;;;;;;7.00;3.60;;;;;;;15.27;50.93;100434.63;5081570;28;19912;-61
2021/12/07 01:25:57;;;;;;;6.20;3.30;;;;;;;15.19;51.35;100478.53;5082866;28;20074;-62
2021/12/07 01:28:31;;;;;;;5.30;3.20;;;;;;;15.18;50.71;100484.69;5081418;28;20116;-60
2021/12/07 01:47:01;;;;;;;5.18;2.90;;;;;;;15.12;51.08;100509.28;5084528;28;20059;-62
2021/12/07 01:59:32;;;;;;;5.43;2.90;;;;;;;15.07;50.76;100524.31;5085726;28;20051;-61
2021/12/07 02:00:54;;;;;;;6.70;3.08;;;;;;;15.09;50.69;100530.31;5085209;28;20036;-61
2021/12/07 02:03:19;;;;;;;5.18;2.78;;;;;;;15.00;50.80;100515.88;5083643;28;20420;-59
2021/12/07 02:05:46;;;;;;;5.07;3.10;;;;;;;15.07;51.09;100529.56;5084968;28;20035;-61
2021/12/07 02:08:12;;;;;;;5.18;2.70;;;;;;;15.06;50.57;100533.91;5084910;28;20017;-61
2021/12/07 02:10:37;;;;;;;5.80;2.80;;;;;;;15.01;50.55;100528.03;5083202;28;20025;-61
2021/12/07 02:13:17;;;;;;;7.83;2.83;;;;;;;14.99;50.58;100537.69;5085204;28;20040;-60
2021/12/07 02:15:42;;;;;;;5.78;2.83;;;;;;;14.94;51.03;100535.25;5083299;28;20017;-61
2021/12/07 02:18:08;;;;;;;5.60;2.77;;;;;;;14.96;50.80;100541.28;5084083;28;20580;-61
2021/12/07 02:20:33;;;;;;;3.20;2.30;;;;;;;14.99;50.62;100550.75;5083782;28;20024;-62
2021/12/07 02:22:59;;;;;;;5.83;2.60;;;;;;;14.98;50.60;100554.28;5081108;28;20473;-61
2021/12/07 02:25:24;;;;;;;3.90;2.60;;;;;;;15.01;50.75;100564.63;5093861;28;20053;-61
2021/12/07 02:27:50;;;;;;;4.60;2.50;;;;;;;14.98;50.93;100556.88;5094837;28;20465;-61
2021/12/07 02:30:20;;;;;;;4.73;2.17;;;;;;;15.00;50.76;100567.25;5095222;28;20470;-62
2021/12/07 02:32:47;;;;;;;4.28;2.60;;;;;;;14.94;50.55;100566.59;5095206;28;20466;-61
2021/12/07 02:35:21;;;;;;;;;;;;;;;15.07;51.06;100573.97;5095554;28;20028;-61
2021/12/07 02:37:46;;;;;;;4.88;2.30;;;;;;;14.90;50.78;100566.78;5094557;28;19915;-60
2021/12/07 02:40:12;;;;;;;3.97;2.27;;;;;;;14.98;50.54;100577.78;5094627;28;20115;-60
2021/12/07 02:42:37;;;;;;;5.93;2.20;;;;;;;14.94;50.64;100574.44;5094883;28;20039;-61
2021/12/07 02:45:05;;;;;;;5.20;2.40;;;;;;;14.92;50.71;100571.03;5094448;28;20068;-61
2021/12/07 02:47:34;;;;;;;5.30;2.63;;;;;;;14.93;50.49;100588.41;5082587;28;20051;-61
2021/12/07 02:49:59;;;;;;;6.05;2.28;;;;;;;14.93;50.34;100588.41;5074658;28;20028;-62
2021/12/07 02:52:24;;;;;;;6.57;2.40;;;;;;;14.91;50.44;100592.00;5073903;28;20036;-61
2021/12/07 02:54:50;;;;;;;4.13;2.33;;;;;;;14.92;50.80;100602.38;5074008;28;20051;-61
2021/12/07 02:57:19;;;;;;;8.17;2.20;;;;;;;14.90;50.69;100604.19;5074165;28;20117;-62
2021/12/07 02:59:50;;;;;;;5.28;2.17;;;;;;;14.93;50.47;100611.94;5073499;28;20028;-62
2021/12/07 03:02:18;;;;;;;4.60;2.05;;;;;;;14.91;50.32;100613.75;5074404;28;20040;-62
2021/12/07 03:04:58;;;;;;;4.93;1.83;;;;;;;14.89;50.86;100617.34;5074006;28;20110;-61
2021/12/07 03:08:25;;;;;;;5.70;2.10;;;;;;;14.88;50.55;100619.06;5073865;28;20035;-61
2021/12/07 03:26:41;;;;;;;4.97;1.90;;;;;;;14.86;50.76;100639.19;5073782;28;20061;-61
2021/12/07 03:29:06;;;;;;;5.57;1.90;;;;;;;14.82;50.39;100633.22;5073911;28;20454;-62
2021/12/07 03:31:33;;;;;;;4.83;1.90;;;;;;;14.81;50.23;100633.28;5073583;28;20021;-62
2021/12/07 03:33:59;;;;;;;;;;;;;;;14.94;50.99;100642.38;5073925;28;20060;-61
2021/12/07 03:36:25;;;;;;;5.05;1.90;;;;;;;14.86;50.57;100647.03;5073124;28;19912;-61
2021/12/07 03:38:51;;;;;;;4.88;1.80;;;;;;;14.83;50.43;100657.59;5073165;28;20028;-61
2021/12/07 03:41:18;;;;;;;5.50;1.92;;;;;;;14.79;50.67;100664.69;5073510;28;20035;-61
2021/12/07 03:43:44;;;;;;;4.20;1.70;;;;;;;14.82;50.50;100664.56;5073344;28;20153;-62
2021/12/07 03:46:10;;;;;;;5.28;1.88;;;;;;;14.80;51.09;100665.53;5073417;28;20036;-61
2021/12/07 03:48:36;;;;;;;3.53;1.97;;;;;;;14.77;50.63;100666.50;5072951;28;20059;-61
2021/12/07 03:51:02;;;;;;;5.25;2.20;;;;;;;14.78;50.55;100683.03;5071685;28;20040;-61
2021/12/07 03:53:28;;;;;;;6.07;1.92;;;;;;;14.75;50.20;100680.53;5072904;28;20029;-61
2021/12/07 03:55:54;;;;;;;5.07;2.10;;;;;;;14.77;50.36;100684.78;5072951;28;20040;-61
2021/12/07 03:58:19;;;;;;;5.47;2.10;;;;;;;14.78;50.19;100683.03;5073465;28;20383;-61
2021/12/07 04:00:46;;;;;;;3.87;1.60;;;;;;;14.78;50.50;100689.13;5073492;28;20063;-61
2021/12/07 04:03:15;;;;;;;4.60;1.70;;;;;;;14.76;50.01;100690.94;5073777;28;20028;-61
2021/12/07 04:05:48;;;;;;;5.50;2.03;;;;;;;14.71;50.55;100687.59;5072859;28;20049;-61
2021/12/07 04:08:16;;;;;;;4.05;2.05;;;;;;;14.75;50.42;100693.59;5072755;28;20056;-61
2021/12/07 04:10:42;;;;;;;4.88;1.90;;;;;;;14.74;50.87;100681.44;5073595;28;20115;-61
2021/12/07 04:13:08;;;;;;;5.47;2.03;;;;;;;14.75;50.25;100684.00;5074415;28;20028;-62
2021/12/07 04:15:34;;;;;;;6.63;1.90;;;;;;;14.74;50.15;100694.50;5073586;28;20641;-62
2021/12/07 04:17:59;;;;;;;5.97;1.87;;;;;;;14.73;50.50;100700.63;5093106;28;20043;-61
2021/12/07 04:20:25;;;;;;;4.30;1.73;;;;;;;14.70;50.65;100698.97;5093858;28;20024;-62
2021/12/07 04:22:50;;;;;;;5.07;1.83;;;;;;;14.63;50.93;100671.31;5087700;28;20025;-62
2021/12/07 04:25:16;;;;;;;3.73;1.70;;;;;;;14.67;51.22;100693.88;5073453;28;20032;-61
2021/12/07 04:27:43;;;;;;;5.32;2.10;;;;;;;14.68;50.38;100700.78;5072943;28;20394;-61
2021/12/07 04:30:16;;;;;;;5.32;1.83;;;;;;;14.64;50.42;100700.00;5071594;28;20044;-61
2021/12/07 04:32:42;;;;;;;5.07;1.65;;;;;;;14.68;50.42;100708.63;5073674;28;20032;-60
2021/12/07 04:35:08;;;;;;;5.43;1.75;;;;;;;14.67;50.42;100707.75;5073354;28;20103;-61
2021/12/07 04:37:34;;;;;;;8.05;1.90;;;;;;;14.66;50.83;100705.19;5072531;28;20064;-61
2021/12/07 04:39:59;;;;;;;3.93;1.80;;;;;;;14.68;50.66;100703.41;5073248;28;20109;-61
2021/12/07 04:42:26;;;;;;;4.13;1.70;;;;;;;14.60;50.66;100708.00;5072615;28;20367;-61
2021/12/07 04:44:56;;;;;;;4.22;1.60;;;;;;;14.64;50.53;100720.88;5073909;28;20286;-62
2021/12/07 04:47:36;;;;;;;4.75;1.83;;;;;;;14.62;50.53;100724.47;5073559;28;20088;-61
2021/12/07 04:58:01;;;;;;;4.97;1.65;;;;;;;14.58;50.55;100721.13;5072285;28;20090;-61
2021/12/07 05:00:29;;;;;;;4.47;1.60;;;;;;;14.64;51.18;100712.22;5072546;28;20033;-61
2021/12/07 05:03:06;;;;;;;5.05;1.60;;;;;;;14.60;50.55;100721.91;5072926;28;20032;-62
2021/12/07 05:05:37;;;;;;;3.50;1.40;;;;;;;14.57;50.81;100734.22;5072795;28;20033;-61
2021/12/07 05:08:06;;;;;;;3.15;1.90;;;;;;;14.60;51.02;100737.59;5073867;28;20093;-60
2021/12/07 05:10:37;;;;;;;3.90;1.70;;;;;;;14.59;51.18;100738.50;5075565;28;20040;-61
2021/12/07 05:39:44;;;;;;;3.47;1.50;;;;;;;14.51;51.20;100772.69;5095556;28;20113;-61
2021/12/07 05:42:11;;;;;;;4.13;1.50;;;;;;;14.51;51.32;100783.13;5094905;28;20466;-60
2021/12/07 05:44:36;;;;;;;;;;;;;;;14.62;51.30;100795.00;5095208;28;20045;-61
2021/12/07 05:47:03;;;;;;;5.33;1.80;;;;;;;14.52;51.09;100802.28;5087404;28;19941;-60
2021/12/07 05:49:28;;;;;;;5.07;1.65;;;;;;;14.51;51.53;100803.19;5075597;28;20539;-61
2021/12/07 05:51:54;;;;;;;3.50;1.40;;;;;;;14.52;51.60;100818.78;5075574;28;20111;-62
2021/12/07 05:54:19;;;;;;;4.77;1.67;;;;;;;14.50;51.33;100814.53;5088084;28;20032;-60
2021/12/07 05:56:45;;;;;;;3.00;1.60;;;;;;;14.49;51.39;100818.03;5095238;28;20111;-60
2021/12/07 05:59:10;;;;;;;3.03;1.33;;;;;;;14.47;51.47;100822.47;5095668;28;20020;-61
2021/12/07 06:01:36;;;;;;;2.83;1.43;;;;;;;14.40;51.43;100815.72;5095657;28;20029;-61
2021/12/07 06:04:01;;;;;;;2.50;1.33;;;;;;;14.46;51.50;100834.66;5082785;28;20021;-61
2021/12/07 06:06:26;;;;;;;4.30;1.50;;;;;;;14.46;51.56;100833.81;5075460;28;20032;-61
2021/12/07 06:08:53;;;;;;;4.07;1.60;;;;;;;14.46;51.19;100833.81;5077067;28;20385;-61
2021/12/07 06:11:21;;;;;;;3.22;1.42;;;;;;;14.46;51.59;100839.03;5089344;28;20028;-61
2021/12/07 06:13:47;;;;;;;2.20;1.15;;;;;;;14.43;51.54;100837.38;5095316;28;20462;-62
2021/12/07 06:16:15;;;;;;;3.33;1.43;;;;;;;14.41;51.72;100826.13;5090659;28;20043;-61
2021/12/07 06:18:40;;;;;;;7.95;1.85;;;;;;;14.30;54.21;100823.81;5089410;28;20432;-62
2021/12/07 06:21:05;;;;;;;9.60;2.27;;;;;;;14.15;53.72;100814.72;5094846;28;20041;-62
2021/12/07 06:23:31;;;;;;;8.00;2.10;;;;;;;13.98;54.04;100815.22;5084021;28;20079;-61
2021/12/07 06:25:58;;;;;;;7.60;1.93;;;;;;;13.89;55.47;100819.00;5084468;28;20024;-60
2021/12/07 06:28:23;;;;;;;11.30;2.30;;;;;;;13.84;55.91;100827.84;5085154;28;20090;-61
2021/12/07 06:30:49;;;;;;;5.43;1.80;;;;;;;13.74;56.25;100819.44;5085287;28;20024;-61
2021/12/07 06:33:18;;;;;;;7.40;1.87;;;;;;;13.71;56.38;100836.03;5078487;28;20028;-62
2021/12/07 06:35:44;;;;;;;6.55;1.75;;;;;;;13.71;56.86;100836.03;5077471;28;20043;-62
2021/12/07 06:38:10;;;;;;;;;;;;;;;13.83;55.42;100845.25;5074967;28;20111;-61
2021/12/07 06:40:36;;;;;;;7.63;1.93;;;;;;;13.68;56.92;100841.31;5074733;28;20027;-61
2021/12/07 06:43:02;;;;;;;5.55;1.80;;;;;;;13.65;57.20;100836.19;5072459;28;20596;-61
2021/12/07 06:45:28;;;;;;;6.60;1.90;;;;;;;13.61;57.28;100836.31;5073562;28;20024;-62
2021/12/07 06:47:54;;;;;;;8.90;2.00;;;;;;;13.62;56.85;100849.34;5076618;28;20064;-61
2021/12/07 06:50:21;;;;;;;10.45;2.70;;;;;;;13.56;55.53;100839.06;5076604;28;20059;-62
2021/12/07 06:52:46;;;;;;;8.38;2.25;;;;;;;13.50;55.79;100837.47;5074113;28;20094;-61
2021/12/07 06:55:12;;;;;;;10.37;2.30;;;;;;;13.51;56.23;100838.34;5073614;28;20024;-60
2021/12/07 06:57:38;;;;;;;7.00;2.30;;;;;;;13.45;56.20;100841.97;5073095;28;20515;-61
2021/12/07 07:00:07;;;;;;;6.78;2.00;;;;;;;13.45;56.60;100852.41;5074522;28;20493;-62
2021/12/07 07:02:33;;;;;;;9.00;2.33;;;;;;;13.43;56.52;100843.78;5074127;28;20090;-62
2021/12/07 07:04:58;;;;;;;8.77;2.30;;;;;;;13.42;56.61;100858.53;5074071;28;20025;-61
2021/12/07 07:07:24;;;;;;;6.93;2.20;;;;;;;13.37;57.01;100855.19;5072469;28;20146;-61
2021/12/07 07:09:51;;;;;;;8.00;1.97;;;;;;;13.38;56.51;100863.84;5073057;28;20482;-62
2021/12/07 07:12:16;;;;;;;;;;;;;;;13.52;55.94;100866.09;5073799;28;20308;-61
2021/12/07 07:14:41;;;;;;;9.23;2.60;;;;;;;13.38;56.61;100854.28;5073729;28;20320;-61
2021/12/07 07:17:07;;;;;;;7.30;2.00;;;;;;;13.38;56.92;100856.03;5086390;28;20423;-62
2021/12/07 07:19:32;;;;;;;6.57;2.40;;;;;;;13.37;56.95;100855.19;5092768;28;20478;-62
2021/12/07 07:22:01;;;;;;;8.73;2.17;;;;;;;13.30;56.69;100837.97;5094092;28;20039;-61
2021/12/07 07:24:27;;;;;;;6.15;1.80;;;;;;;13.34;56.82;100847.44;5075021;28;20025;-62
2021/12/07 07:26:52;;;;;;;6.38;1.90;;;;;;;13.30;56.91;100848.41;5073436;28;20469;-62
2021/12/07 07:29:17;;;;;;;7.27;2.20;;;;;;;13.34;56.72;100863.06;5073970;28;20036;-62
2021/12/07 07:31:43;;;;;;;7.00;2.13;;;;;;;13.34;57.02;100864.84;5073023;28;20035;-62
2021/12/07 07:34:08;;;;;;;8.60;2.23;;;;;;;13.28;56.62;100866.69;5073501;28;20086;-62
2021/12/07 07:36:33;;;;;;;9.07;2.53;;;;;;;13.31;56.83;100870.13;5073245;28;20048;-61
2021/12/07 07:38:59;;;;;;;8.83;2.13;;;;;;;13.31;56.82;100870.13;5072077;28;20036;-62
2021/12/07 07:41:24;;;;;;;8.87;2.10;;;;;;;13.30;56.76;100879.69;5073275;28;20028;-62
2021/12/07 07:43:50;;;;;;;8.60;2.30;;;;;;;13.21;56.72;100864.28;5073513;28;20029;-61
2021/12/07 07:46:15;;;;;;;6.40;2.10;;;;;;;13.26;56.60;100872.84;5073381;28;20059;-62
2021/12/07 07:48:41;;;;;;;7.07;2.10;;;;;;;13.19;56.86;100866.06;5073047;28;20053;-61
2021/12/07 07:51:06;;;;;;;6.43;2.23;;;;;;;13.23;56.57;100859.91;5073406;28;20045;-61
2021/12/07 07:53:32;;;;;;;6.93;2.37;;;;;;;13.20;56.53;100854.75;5072930;28;20505;-60
2021/12/07 07:55:57;;;;;;;8.23;2.73;;;;;;;13.21;56.62;100867.75;5073357;28;20036;-62
2021/12/07 07:58:23;;;;;;;7.33;2.40;;;;;;;13.27;56.49;100862.38;5073288;28;20843;-62
2021/12/07 08:00:49;;;;;;;5.77;2.40;;;;;;;13.22;56.84;100859.06;5073285;28;20390;-62
2021/12/07 08:03:15;;;;;;;7.53;2.40;;;;;;;13.21;56.58;100853.88;5073194;28;20107;-62
2021/12/07 08:05:40;;;;;;;8.90;2.30;;;;;;;13.23;56.55;100852.91;5073288;28;20155;-61
2021/12/07 08:08:06;;;;;;;8.63;2.17;;;;;;;13.23;56.79;100852.91;5072811;28;20031;-61
2021/12/07 08:10:32;;;;;;;9.87;2.50;;;;;;;13.21;56.48;100851.25;5072770;28;20032;-61
2021/12/07 08:13:02;;;;;;;8.18;2.45;;;;;;;13.21;56.58;100859.94;5073011;28;20360;-63
2021/12/07 08:15:30;;;;;;;6.88;2.30;;;;;;;13.21;56.50;100866.91;5073085;28;20086;-61
2021/12/07 08:17:55;;;;;;;11.52;2.53;;;;;;;13.18;56.67;100866.97;5092539;28;20028;-62
2021/12/07 08:20:21;;;;;;;9.23;2.63;;;;;;;13.17;56.29;100860.91;5093069;28;20040;-61
2021/12/07 08:22:46;;;;;;;7.73;2.33;;;;;;;13.24;56.74;100877.25;5086399;28;20028;-62
2021/12/07 08:25:12;;;;;;;9.13;2.40;;;;;;;13.21;56.68;100866.91;5072387;28;20032;-61
2021/12/07 08:27:38;;;;;;;7.43;2.50;;;;;;;13.16;56.63;100871.38;5072743;28;20463;-61
2021/12/07 08:30:06;;;;;;;8.47;2.40;;;;;;;13.20;56.19;100879.09;5073339;28;20036;-61
2021/12/07 08:32:31;;;;;;;6.82;2.22;;;;;;;13.20;56.36;100897.31;5072586;28;20035;-61
2021/12/07 08:34:57;;;;;;;12.37;2.60;;;;;;;13.23;56.52;100899.00;5072800;28;20016;-61
2021/12/07 08:37:22;;;;;;;8.57;2.40;;;;;;;13.20;56.29;100886.91;5072222;28;20430;-61
2021/12/07 08:39:48;;;;;;;9.27;2.83;;;;;;;13.19;56.26;100879.09;5072608;28;20052;-61
2021/12/07 08:42:15;;;;;;;9.50;2.67;;;;;;;13.22;55.89;100882.50;5072672;28;20198;-61
2021/12/07 08:44:40;;;;;;;9.25;2.50;;;;;;;13.17;55.93;100878.31;5072629;28;20108;-62
2021/12/07 08:47:06;;;;;;;10.30;2.70;;;;;;;13.19;56.07;100887.78;5072221;28;20107;-61
2021/12/07 08:49:31;;;;;;;9.27;2.73;;;;;;;13.20;56.02;100886.03;5072794;28;20052;-61
2021/12/07 08:51:57;;;;;;;9.07;2.40;;;;;;;13.15;56.03;100878.34;5072276;28;20028;-58
2021/12/07 08:59:36;;;;;;;9.63;2.53;;;;;;;13.19;55.72;100885.19;5072365;28;20104;-61
2021/12/07 08:59:54;;;;;;;10.60;2.97;;;;;;;13.15;55.62;100867.06;5072608;28;20125;-62
2021/12/07 09:02:24;;;;;;;9.13;2.70;;;;;;;13.18;55.56;100878.25;5072281;28;20060;-60
2021/12/07 09:04:51;;;;;;;8.57;2.50;;;;;;;13.17;55.62;100875.72;5072311;28;20043;-61
2021/12/07 09:07:17;;;;;;;9.43;2.80;;;;;;;13.16;55.58;100858.34;5072437;28;20253;-61
2021/12/07 09:09:44;;;;;;;8.68;2.35;;;;;;;13.17;55.59;100865.28;5072521;28;20029;-61
2021/12/07 09:12:12;;;;;;;9.68;2.75;;;;;;;13.18;55.82;100866.97;5072644;28;20036;-62
2021/12/07 09:14:38;;;;;;;7.20;2.38;;;;;;;13.14;56.21;100853.16;5072467;28;20112;-62
2021/12/07 09:17:05;;;;;;;9.02;2.30;;;;;;;13.20;56.13;100854.75;5083985;28;20464;-61
2021/12/07 09:19:31;;;;;;;7.68;2.22;;;;;;;13.20;56.08;100853.03;5092575;28;20101;-61
2021/12/07 09:21:57;;;;;;;7.78;2.55;;;;;;;13.20;55.67;100855.63;5092637;28;20028;-61
2021/12/07 09:24:23;;;;;;;10.17;2.30;;;;;;;13.23;55.92;100862.50;5074309;28;20526;-61
2021/12/07 09:26:49;;;;;;;6.57;2.40;;;;;;;13.18;55.92;100857.41;5072340;28;20409;-61
2021/12/07 09:29:14;;;;;;;7.95;2.38;;;;;;;13.23;55.87;100863.34;5072518;28;20067;-62
2021/12/07 09:31:41;;;;;;;7.63;2.47;;;;;;;13.23;55.84;100865.09;5072085;28;20067;-61
2021/12/07 09:34:07;;;;;;;7.78;2.40;;;;;;;13.24;55.85;100866.81;5072143;28;20043;-58
2021/12/07 09:36:34;;;;;;;7.88;2.42;;;;;;;13.17;55.71;100863.50;5076794;28;20043;-61
2021/12/07 09:39:00;;;;;;;10.10;2.47;;;;;;;13.23;55.50;100865.94;5081769;28;20060;-61
2021/12/07 09:41:25;;;;;;;5.50;2.20;;;;;;;13.15;55.91;100856.63;5080061;28;20407;-62
2021/12/07 09:43:52;;;;;;;7.33;2.30;;;;;;;13.14;55.55;100853.16;5082625;28;20024;-61
2021/12/07 09:46:17;;;;;;;8.45;2.40;;;;;;;13.21;55.43;100862.56;5081253;28;20025;-62
2021/12/07 09:48:45;;;;;;;7.37;2.47;;;;;;;13.16;55.63;100847.94;5080815;28;20055;-61
2021/12/07 09:51:14;;;;;;;7.45;2.30;;;;;;;13.18;55.75;100859.16;5082504;28;20027;-61
2021/12/07 09:53:39;;;;;;;9.25;2.40;;;;;;;13.21;55.98;100862.56;5081980;28;20355;-61
2021/12/07 09:56:07;;;;;;;7.23;2.40;;;;;;;13.19;56.10;100866.06;5083641;28;20073;-61
2021/12/07 09:58:33;;;;;;;6.60;2.40;;;;;;;13.17;55.78;100862.69;5087268;28;20035;-61
2021/12/07 10:00:59;;;;;;;8.05;2.42;;;;;;;13.21;55.86;100865.16;5084989;28;20043;-61
2021/12/07 10:03:24;;;;;;;6.57;2.30;;;;;;;13.17;55.44;100853.09;5085661;28;20485;-61
2021/12/07 10:05:51;;;;;;;7.80;2.50;;;;;;;13.23;56.04;100852.91;5078731;28;20077;-61
2021/12/07 10:08:17;;;;;;;8.18;2.58;;;;;;;13.21;56.32;100852.13;5086923;28;20064;-61
2021/12/07 10:10:55;;;;;;;8.70;2.60;;;;;;;13.22;56.35;100852.97;5089752;28;20059;-61
2021/12/07 10:13:21;;;;;;;10.02;2.47;;;;;;;13.24;56.62;100856.41;5095212;28;20466;-61
2021/12/07 10:15:48;;;;;;;8.00;2.40;;;;;;;13.26;56.52;100852.00;5093309;28;20036;-61
2021/12/07 10:18:17;;;;;;;9.05;2.58;;;;;;;13.23;56.54;100846.88;5074878;28;20158;-61
2021/12/07 10:20:46;;;;;;;6.85;2.20;;;;;;;13.23;56.60;100844.25;5075336;28;20455;-62
2021/12/07 10:23:14;;;;;;;8.02;2.30;;;;;;;13.31;56.71;100844.91;5073548;28;20108;-61
2021/12/07 10:25:41;;;;;;;8.02;2.30;;;;;;;13.31;56.98;100841.44;5072159;28;20025;-61
2021/12/07 10:28:27;;;;;;;6.03;2.25;;;;;;;13.36;56.56;100842.16;5071571;28;20024;-61
2021/12/07 10:30:53;;;;;;;7.28;2.30;;;;;;;13.34;56.61;100847.44;5071851;28;20021;-60
2021/12/07 10:33:53;;;;;;;;;;;;;;;13.44;56.11;100843.72;5072789;28;20350;-61
2021/12/07 10:36:31;;;;;;;7.55;2.55;;;;;;;13.33;56.38;100839.66;5039602;28;20257;-61
2021/12/07 10:39:09;;;;;;;8.15;2.58;;;;;;;13.35;56.23;100825.69;5073129;28;20036;-61
2021/12/07 10:41:43;;;;;;;7.35;2.40;;;;;;;13.28;56.41;100814.56;5073477;28;20032;-61
2021/12/07 10:44:12;;;;;;;8.93;2.40;;;;;;;13.34;56.45;100816.16;5075017;28;20374;-62
2021/12/07 10:46:40;;;;;;;8.65;2.60;;;;;;;13.34;56.54;100816.16;5075462;28;20082;-62
2021/12/07 10:49:16;;;;;;;9.68;2.35;;;;;;;13.28;56.13;100796.31;5075004;28;20052;-61
2021/12/07 10:52:14;;;;;;;9.63;2.50;;;;;;;13.38;56.23;100802.16;5075026;28;20090;-62
2021/12/07 10:55:00;;;;;;;7.18;2.20;;;;;;;13.37;56.33;100799.56;5074817;28;20036;-62
2021/12/07 10:57:38;;;;;;;6.47;2.20;;;;;;;13.36;56.03;100795.25;5075112;28;20016;-61
2021/12/07 11:00:21;;;;;;;7.72;2.40;;;;;;;13.34;56.22;100790.09;5074967;28;20025;-62
2021/12/07 11:03:14;;;;;;;7.65;2.40;;;;;;;13.32;56.05;100780.63;5074873;28;20161;-62
2021/12/07 11:05:45;;;;;;;8.80;2.55;;;;;;;13.31;55.92;100765.88;5074708;28;20025;-61
2021/12/07 11:08:11;;;;;;;7.75;2.20;;;;;;;13.31;56.02;100753.69;5074904;28;20032;-61
2021/12/07 11:10:42;;;;;;;9.13;2.47;;;;;;;13.31;56.11;100753.69;5074638;28;20032;-62
2021/12/07 11:13:16;;;;;;;7.45;2.17;;;;;;;13.32;55.80;100750.19;5074747;28;20028;-62
2021/12/07 11:15:52;;;;;;;9.38;2.60;;;;;;;13.34;56.07;100755.38;5074984;28;20028;-62
2021/12/07 11:18:30;;;;;;;7.88;2.30;;;;;;;13.33;56.08;100753.66;5074419;28;20370;-61
2021/12/07 11:21:01;;;;;;;9.48;2.70;;;;;;;13.28;55.85;100739.00;5074582;28;20377;-62
2021/12/07 11:23:31;;;;;;;7.40;2.40;;;;;;;13.30;55.85;100738.94;5075119;28;20405;-62
2021/12/07 11:31:26;;;;;;;8.73;2.63;;;;;;;13.27;55.70;100724.25;5074249;28;20043;-62
2021/12/07 11:34:07;;;;;;;5.88;2.22;;;;;;;13.28;55.58;100731.16;5074362;28;20012;-62
2021/12/07 11:36:42;;;;;;;9.32;2.75;;;;;;;13.27;55.47;100739.03;5074622;28;20142;-62
2021/12/07 11:39:23;;;;;;;8.45;2.50;;;;;;;13.31;55.80;100740.66;5074305;28;20024;-62
2021/12/07 11:41:53;;;;;;;8.45;2.35;;;;;;;13.27;55.60;100732.06;5074128;28;20362;-61
2021/12/07 11:44:19;;;;;;;9.48;2.53;;;;;;;13.25;55.70;100733.84;5074346;28;20125;-61
2021/12/07 11:46:50;;;;;;;7.55;2.55;;;;;;;13.24;55.69;100721.72;5074063;28;20024;-62
2021/12/07 11:49:25;;;;;;;10.52;2.60;;;;;;;13.25;55.50;100726.03;5074257;28;20375;-62
2021/12/07 11:51:54;;;;;;;7.00;2.55;;;;;;;13.25;55.53;100725.19;5073912;28;20048;-61
2021/12/07 11:54:24;;;;;;;8.45;2.60;;;;;;;13.23;55.40;100721.78;5073965;28;20028;-62
2021/12/07 11:56:50;;;;;;;11.98;2.78;;;;;;;13.21;55.28;100711.41;5074528;28;20173;-62
2021/12/07 11:59:16;;;;;;;7.15;2.60;;;;;;;13.24;55.41;100710.44;5074100;28;20027;-62
2021/12/07 12:01:44;;;;;;;7.80;2.40;;;;;;;13.18;55.30;100706.28;5074005;28;20465;-62
2021/12/07 12:04:10;;;;;;;7.32;2.40;;;;;;;13.20;55.38;100690.59;5073725;28;20020;-61
2021/12/07 12:06:35;;;;;;;8.83;2.70;;;;;;;13.25;55.40;100697.38;5073625;28;20153;-62
2021/12/07 12:09:01;;;;;;;8.97;2.50;;;;;;;13.24;55.22;100687.00;5072398;28;20039;-62
2021/12/07 12:11:54;;;;;;;9.07;3.00;;;;;;;13.28;55.53;100683.41;5073732;28;20546;-62
2021/12/07 12:14:59;;;;;;;9.95;2.67;;;;;;;13.28;55.28;100689.47;5073810;28;20086;-62
2021/12/07 12:17:57;;;;;;;8.80;2.60;;;;;;;13.28;55.59;100678.22;5058764;28;20036;-61
2021/12/07 12:20:42;;;;;;;9.55;2.65;;;;;;;13.25;55.37;100676.53;5042537;28;20486;-62
2021/12/07 12:23:33;;;;;;;11.38;2.58;;;;;;;13.29;55.37;100672.94;5073170;28;20043;-62
2021/12/07 12:26:08;;;;;;;9.85;2.88;;;;;;;13.17;55.27;100649.00;5073575;28;20447;-62
2021/12/07 12:28:40;;;;;;;7.15;2.53;;;;;;;13.24;55.24;100653.13;5073300;28;20024;-62
2021/12/07 12:31:08;;;;;;;10.43;2.80;;;;;;;13.25;55.13;100644.41;5073689;28;20020;-62
2021/12/07 12:33:53;;;;;;;10.23;2.75;;;;;;;13.26;55.44;100635.69;5073295;28;20059;-62
2021/12/07 12:36:20;;;;;;;9.68;2.67;;;;;;;13.20;55.12;100630.66;5073332;28;20025;-62
2021/12/07 12:39:16;;;;;;;13.30;2.75;;;;;;;13.23;55.44;100635.78;5073673;28;20025;-62
2021/12/07 12:41:41;;;;;;;9.63;2.60;;;;;;;13.23;55.44;100639.22;5069120;28;20032;-61
2021/12/07 12:44:11;;;;;;;9.43;2.90;;;;;;;13.21;55.16;100630.63;5072900;28;20032;-62
2021/12/07 12:46:37;;;;;;;10.73;2.75;;;;;;;13.18;55.17;100615.06;5073232;28;20021;-61
2021/12/07 12:49:11;;;;;;;8.77;2.60;;;;;;;13.19;55.12;100611.56;5073542;28;20072;-62
2021/12/07 12:51:50;;;;;;;9.98;2.78;;;;;;;13.24;55.17;100606.22;5073189;28;20035;-62
2021/12/07 12:54:20;;;;;;;9.68;2.72;;;;;;;13.20;55.32;100594.16;5073207;28;20030;-62
2021/12/07 12:56:46;;;;;;;9.40;2.63;;;;;;;13.15;55.00;100568.25;5072750;28;20036;-61
2021/12/07 12:59:12;;;;;;;5.97;2.70;;;;;;;13.15;55.10;100555.22;5072547;28;20485;-62
2021/12/07 13:01:47;;;;;;;8.40;2.50;;;;;;;13.23;55.28;100557.59;5073150;28;20070;-62
2021/12/07 13:04:16;;;;;;;9.50;2.38;;;;;;;13.23;55.37;100553.22;5073149;28;20108;-62
2021/12/07 13:06:52;;;;;;;9.25;2.70;;;;;;;13.25;55.42;100550.59;5073320;28;20037;-62
2021/12/07 13:09:17;;;;;;;8.15;2.45;;;;;;;13.28;55.40;100545.28;5073018;28;20484;-62
2021/12/07 13:11:43;;;;;;;6.00;2.47;;;;;;;13.31;55.77;100536.50;5072674;28;20025;-62
2021/12/07 13:14:23;;;;;;;6.70;2.27;;;;;;;13.33;55.72;100525.13;5072919;28;20451;-62
2021/12/07 13:16:54;;;;;;;5.28;2.38;;;;;;;13.29;55.51;100513.09;5073218;28;20058;-62